Time;durP1;ratioP1;P1;durP2;ratioP2;P2;SDS_P1;SDS_P2;PMS_P1;PMS_P2;Temp;Humidity;BMP_temperature;BMP_pressure;BME280_temperature;BME280_humidity;BME280_pressure;Samples;Min_cycle;Max_cycle;Signal;HPM_P1;HPM_P2
2023/09/14 00:00:45;;;;;;;8.90;2.55;;;11.30;99.90;;;;;;5062473;28;20082;-85
2023/09/14 00:03:15;;;;;;;6.22;2.70;;;11.30;99.90;;;;;;5061077;28;20044;-85
2023/09/14 00:05:42;;;;;;;4.05;2.40;;;11.30;99.90;;;;;;5073552;28;20040;-85
2023/09/14 00:08:08;;;;;;;5.78;2.45;;;11.30;99.90;;;;;;5063813;28;20552;-85
2023/09/14 00:10:34;;;;;;;5.82;2.70;;;11.20;99.90;;;;;;5076706;28;20476;-85
2023/09/14 00:13:00;;;;;;;6.68;2.40;;;11.20;99.90;;;;;;5065360;28;20055;-85
2023/09/14 00:15:26;;;;;;;7.10;2.63;;;11.20;99.90;;;;;;5062077;28;20085;-85
2023/09/14 00:17:52;;;;;;;8.05;2.78;;;11.20;99.90;;;;;;5057588;28;20043;-85
2023/09/14 00:20:27;;;;;;;6.13;2.58;;;11.10;99.90;;;;;;5075692;28;20043;-86
2023/09/14 00:22:57;;;;;;;7.45;2.40;;;11.10;99.90;;;;;;5066244;28;20075;-85
2023/09/14 00:25:26;;;;;;;4.45;2.30;;;11.20;99.90;;;;;;5055763;28;20040;-84
2023/09/14 00:27:52;;;;;;;6.40;2.53;;;11.20;99.90;;;;;;5057890;28;20028;-85
2023/09/14 00:30:19;;;;;;;5.30;2.58;;;11.20;99.90;;;;;;5057308;28;20377;-85
2023/09/14 00:32:47;;;;;;;6.88;2.70;;;11.20;99.90;;;;;;5059669;28;20040;-85
2023/09/14 00:35:14;;;;;;;9.77;3.25;;;11.30;99.90;;;;;;5072200;28;20139;-85
2023/09/14 00:37:41;;;;;;;4.60;2.40;;;11.30;99.90;;;;;;5051753;28;20504;-85
2023/09/14 00:40:08;;;;;;;9.18;3.05;;;11.30;99.90;;;;;;5061618;28;20062;-85
2023/09/14 00:42:47;;;;;;;5.38;2.47;;;11.40;99.90;;;;;;5074774;28;20184;-85
2023/09/14 00:45:16;;;;;;;5.53;2.67;;;11.30;99.90;;;;;;5074894;28;20044;-85
2023/09/14 00:47:46;;;;;;;5.18;2.50;;;11.30;99.90;;;;;;5072291;28;20051;-85
2023/09/14 00:50:15;;;;;;;7.38;2.55;;;11.30;99.90;;;;;;5073300;28;20249;-85
2023/09/14 00:52:54;;;;;;;5.95;2.30;;;11.30;99.90;;;;;;5081942;28;20036;-85
2023/09/14 00:55:20;;;;;;;4.93;2.22;;;11.30;99.90;;;;;;5078216;28;20476;-85
2023/09/14 00:57:48;;;;;;;5.35;2.75;;;11.30;99.90;;;;;;5080823;28;20059;-85
2023/09/14 01:00:14;;;;;;;5.20;2.67;;;11.30;99.90;;;;;;5092913;28;20044;-85
2023/09/14 01:02:40;;;;;;;4.10;2.47;;;11.30;99.90;;;;;;5081400;28;20048;-85
2023/09/14 01:05:06;;;;;;;7.10;2.65;;;11.30;99.90;;;;;;5080288;28;20046;-84
2023/09/14 01:07:33;;;;;;;4.60;2.50;;;11.40;99.90;;;;;;5075202;28;20032;-85
2023/09/14 01:09:59;;;;;;;5.55;2.47;;;11.40;99.90;;;;;;5089888;28;20035;-85
2023/09/14 01:12:25;;;;;;;5.28;2.00;;;11.40;99.90;;;;;;5076438;28;20031;-85
2023/09/14 01:14:55;;;;;;;9.30;2.47;;;11.40;99.90;;;;;;5095588;28;20243;-85
2023/09/14 01:17:39;;;;;;;10.20;2.70;;;11.40;99.90;;;;;;5075864;28;20046;-85
2023/09/14 01:20:33;;;;;;;7.65;2.45;;;11.40;99.90;;;;;;5078476;28;20092;-85
2023/09/14 01:23:25;;;;;;;7.18;2.50;;;11.40;99.90;;;;;;5077398;28;20059;-84
2023/09/14 01:25:52;;;;;;;8.88;2.40;;;11.50;99.90;;;;;;5073979;28;20051;-84
2023/09/14 01:28:18;;;;;;;4.15;2.40;;;11.50;99.90;;;;;;5091699;28;20050;-85
2023/09/14 01:30:44;;;;;;;6.55;2.70;;;11.50;99.90;;;;;;5071570;28;20158;-85
2023/09/14 01:33:13;;;;;;;7.00;2.45;;;11.50;99.90;;;;;;5087897;28;20606;-85
2023/09/14 01:35:49;;;;;;;6.30;2.42;;;11.50;99.90;;;;;;5088761;28;20043;-85
2023/09/14 01:38:15;;;;;;;6.25;2.30;;;11.50;99.90;;;;;;5091468;28;20044;-85
2023/09/14 01:40:44;;;;;;;6.90;2.92;;;11.40;99.90;;;;;;5075461;28;20799;-84
2023/09/14 01:43:11;;;;;;;6.00;2.58;;;11.40;99.90;;;;;;5067023;28;20083;-84
2023/09/14 01:45:38;;;;;;;4.40;2.35;;;11.40;99.90;;;;;;5066560;28;20047;-85
2023/09/14 01:48:06;;;;;;;4.63;2.30;;;11.40;99.90;;;;;;5068977;28;20037;-85
2023/09/14 01:50:32;;;;;;;5.90;2.35;;;11.40;99.90;;;;;;5054971;28;20173;-84
2023/09/14 01:52:58;;;;;;;7.63;2.22;;;11.40;99.90;;;;;;5069609;28;20143;-85
2023/09/14 01:55:23;;;;;;;4.82;2.00;;;11.50;99.90;;;;;;5054957;28;20041;-85
2023/09/14 01:57:49;;;;;;;6.85;2.65;;;11.50;99.90;;;;;;5058893;28;20032;-85
2023/09/14 02:00:15;;;;;;;9.80;2.45;;;11.50;99.90;;;;;;5068931;28;20348;-85
2023/09/14 02:02:41;;;;;;;10.68;2.65;;;11.40;99.90;;;;;;5073316;28;20324;-85
2023/09/14 02:05:10;;;;;;;4.15;2.17;;;11.40;99.90;;;;;;5075160;28;20044;-85
2023/09/14 02:07:35;;;;;;;6.35;2.33;;;11.30;99.90;;;;;;5066981;28;20043;-84
2023/09/14 02:10:01;;;;;;;5.20;2.38;;;11.30;99.90;;;;;;5057141;28;20040;-85
2023/09/14 02:12:27;;;;;;;5.07;2.40;;;11.20;99.90;;;;;;5067613;28;20043;-85
2023/09/14 02:14:52;;;;;;;6.78;2.45;;;11.10;99.90;;;;;;5070912;28;20522;-85
2023/09/14 02:17:18;;;;;;;5.80;2.38;;;11.00;99.90;;;;;;5060894;28;20038;-85
2023/09/14 02:19:44;;;;;;;7.75;2.33;;;11.00;99.90;;;;;;5068806;28;20036;-85
2023/09/14 02:22:09;;;;;;;6.45;2.60;;;10.90;99.90;;;;;;5058173;28;20476;-84
2023/09/14 02:24:35;;;;;;;7.47;2.65;;;11.00;99.90;;;;;;5061342;28;20068;-85
2023/09/14 02:27:01;;;;;;;5.72;2.67;;;10.90;99.90;;;;;;5060778;28;20044;-85
2023/09/14 02:29:26;;;;;;;5.75;2.30;;;10.80;99.90;;;;;;5075118;28;20457;-85
2023/09/14 02:31:52;;;;;;;5.20;2.05;;;10.70;99.90;;;;;;5073088;28;20036;-85
2023/09/14 02:34:18;;;;;;;4.80;2.17;;;10.70;99.90;;;;;;5072672;28;20035;-85
2023/09/14 02:36:43;;;;;;;3.65;2.30;;;10.60;99.90;;;;;;5059715;28;20079;-86
2023/09/14 02:39:09;;;;;;;6.10;2.80;;;10.60;99.90;;;;;;5060558;28;20097;-85
2023/09/14 02:41:34;;;;;;;6.88;2.20;;;10.50;99.90;;;;;;5070170;28;20504;-85
2023/09/14 02:44:00;;;;;;;5.93;2.30;;;10.50;99.90;;;;;;5073010;28;20118;-85
2023/09/14 02:46:26;;;;;;;3.53;2.05;;;10.40;99.90;;;;;;5062263;28;20412;-85
2023/09/14 02:48:54;;;;;;;3.30;2.15;;;10.40;99.90;;;;;;5064903;28;20074;-85
2023/09/14 02:51:20;;;;;;;3.28;1.90;;;10.40;99.90;;;;;;5079035;28;20055;-85
2023/09/14 02:53:46;;;;;;;5.10;2.10;;;10.30;99.90;;;;;;5063418;28;20469;-85
2023/09/14 02:56:12;;;;;;;4.00;2.00;;;10.20;99.90;;;;;;5058853;28;20193;-85
2023/09/14 02:58:38;;;;;;;7.78;2.30;;;10.20;99.90;;;;;;5057102;28;20120;-85
2023/09/14 03:01:10;;;;;;;6.97;2.25;;;10.10;99.90;;;;;;5071531;28;20051;-86
2023/09/14 03:03:37;;;;;;;5.50;2.30;;;10.00;99.90;;;;;;5074475;28;20058;-85
2023/09/14 03:06:03;;;;;;;4.70;2.50;;;10.00;99.90;;;;;;5061459;28;20123;-85
2023/09/14 03:08:30;;;;;;;5.55;2.33;;;9.90;99.90;;;;;;5061676;28;20037;-86
2023/09/14 03:10:56;;;;;;;6.78;2.90;;;9.90;99.90;;;;;;5064323;28;20036;-85
2023/09/14 03:13:22;;;;;;;3.90;2.50;;;9.90;99.90;;;;;;5057023;28;20051;-85
2023/09/14 03:15:58;;;;;;;6.03;2.50;;;9.80;99.90;;;;;;5062710;28;20411;-85
2023/09/14 03:18:25;;;;;;;4.85;2.63;;;9.80;99.90;;;;;;5060749;28;20509;-86
2023/09/14 03:20:55;;;;;;;5.65;2.60;;;9.70;99.90;;;;;;5060000;28;20387;-86
2023/09/14 03:23:24;;;;;;;5.53;2.63;;;9.60;99.90;;;;;;5057820;28;20045;-86
2023/09/14 03:25:50;;;;;;;6.03;2.63;;;9.60;99.90;;;;;;5062771;28;20032;-85
2023/09/14 03:28:17;;;;;;;3.72;2.35;;;9.60;99.90;;;;;;5066106;28;20364;-85
2023/09/14 03:30:43;;;;;;;3.75;2.47;;;9.50;99.90;;;;;;5055485;28;20043;-85
2023/09/14 03:33:10;;;;;;;7.72;2.60;;;9.50;99.90;;;;;;5074560;28;20115;-86
2023/09/14 03:35:36;;;;;;;7.10;2.40;;;9.50;99.90;;;;;;5061032;28;20480;-85
2023/09/14 03:38:02;;;;;;;6.50;2.38;;;9.40;99.90;;;;;;5069959;28;20048;-85
2023/09/14 03:40:28;;;;;;;8.65;3.17;;;9.30;99.90;;;;;;5063735;28;20520;-85
2023/09/14 03:42:53;;;;;;;4.68;2.60;;;9.30;99.90;;;;;;5075954;28;20055;-85
2023/09/14 03:45:19;;;;;;;4.18;2.53;;;9.20;99.90;;;;;;5083127;28;20044;-86
2023/09/14 03:47:45;;;;;;;4.05;2.75;;;9.20;99.90;;;;;;5081602;28;20472;-86
2023/09/14 03:50:13;;;;;;;7.00;2.58;;;9.20;99.90;;;;;;5081346;28;20047;-86
2023/09/14 03:52:39;;;;;;;6.47;3.10;;;9.10;99.90;;;;;;5082459;28;20063;-85
2023/09/14 03:55:06;;;;;;;6.55;2.60;;;9.10;99.90;;;;;;5090178;28;20187;-85
2023/09/14 03:57:31;;;;;;;4.32;2.63;;;9.10;99.90;;;;;;5085128;28;20070;-86
2023/09/14 03:59:57;;;;;;;6.18;2.50;;;9.00;99.90;;;;;;5085086;28;20479;-86
2023/09/14 04:02:26;;;;;;;6.25;2.38;;;9.00;99.90;;;;;;5092062;28;20429;-86
2023/09/14 04:04:52;;;;;;;4.43;2.75;;;8.90;99.90;;;;;;5078847;28;20481;-85
2023/09/14 04:07:18;;;;;;;5.72;2.72;;;8.90;99.90;;;;;;5090211;28;20176;-86
2023/09/14 04:09:44;;;;;;;6.30;2.60;;;8.90;99.90;;;;;;5077713;28;20273;-86
2023/09/14 04:12:10;;;;;;;4.43;2.38;;;8.90;99.90;;;;;;5093462;28;20043;-85
2023/09/14 04:14:35;;;;;;;3.65;2.50;;;8.90;99.90;;;;;;5083364;28;20040;-85
2023/09/14 04:17:01;;;;;;;4.32;2.60;;;8.80;99.90;;;;;;5090076;28;20118;-86
2023/09/14 04:19:28;;;;;;;2.40;1.85;;;8.80;99.90;;;;;;5077247;28;20123;-85
2023/09/14 04:21:54;;;;;;;7.32;2.47;;;8.60;99.90;;;;;;5075155;28;20192;-85
2023/09/14 04:24:20;;;;;;;3.53;2.25;;;8.60;99.90;;;;;;5096260;28;20123;-85
2023/09/14 04:26:46;;;;;;;3.47;2.28;;;8.70;99.90;;;;;;5080700;28;20031;-86
2023/09/14 04:29:12;;;;;;;4.35;2.40;;;8.60;99.90;;;;;;5097825;28;20040;-86
2023/09/14 04:31:39;;;;;;;5.00;2.50;;;8.60;99.90;;;;;;5076684;28;20038;-86
2023/09/14 04:34:04;;;;;;;4.43;2.22;;;8.60;99.90;;;;;;5081712;28;20097;-85
2023/09/14 04:36:31;;;;;;;5.63;2.60;;;8.60;99.90;;;;;;5087101;28;20048;-85
2023/09/14 04:38:57;;;;;;;3.67;2.22;;;8.60;99.90;;;;;;5095383;28;20120;-85
2023/09/14 04:41:22;;;;;;;7.18;2.22;;;8.60;99.90;;;;;;5090497;28;20040;-85
2023/09/14 04:43:48;;;;;;;6.28;2.50;;;8.50;99.90;;;;;;5081419;28;20060;-85
2023/09/14 04:46:14;;;;;;;6.15;2.28;;;8.50;99.90;;;;;;5055402;28;20044;-85
2023/09/14 04:48:41;;;;;;;3.50;1.80;;;8.50;99.90;;;;;;5060451;28;20040;-85
2023/09/14 04:51:07;;;;;;;5.28;2.20;;;8.50;99.90;;;;;;5050576;28;20037;-85
2023/09/14 04:53:33;;;;;;;3.25;2.10;;;8.50;99.90;;;;;;5052718;28;20090;-85
2023/09/14 04:55:59;;;;;;;3.40;2.03;;;8.50;99.90;;;;;;5059645;28;20097;-85
2023/09/14 04:58:25;;;;;;;5.85;2.42;;;8.50;99.90;;;;;;5057523;28;20119;-84
2023/09/14 05:00:51;;;;;;;3.53;2.20;;;8.50;99.90;;;;;;5058073;28;20404;-85
2023/09/14 05:03:20;;;;;;;5.10;2.17;;;8.40;99.90;;;;;;5059309;28;20250;-85
2023/09/14 05:05:52;;;;;;;2.92;2.10;;;8.40;99.90;;;;;;5068671;28;20547;-85
2023/09/14 05:08:17;;;;;;;5.18;2.47;;;8.40;99.90;;;;;;5073657;28;20044;-85
2023/09/14 05:10:43;;;;;;;4.38;2.30;;;8.40;99.90;;;;;;5071367;28;20039;-85
2023/09/14 05:13:09;;;;;;;4.45;2.50;;;8.40;99.90;;;;;;5061889;28;20071;-84
2023/09/14 05:15:34;;;;;;;6.50;2.90;;;8.40;99.90;;;;;;5073291;28;20086;-85
2023/09/14 05:18:00;;;;;;;3.80;2.53;;;8.40;99.90;;;;;;5073799;28;20226;-85
2023/09/14 05:20:26;;;;;;;4.03;2.58;;;8.40;99.90;;;;;;5058597;28;20050;-84
2023/09/14 05:22:51;;;;;;;4.35;2.65;;;8.40;99.90;;;;;;5070203;28;20035;-85
2023/09/14 05:25:17;;;;;;;4.35;2.58;;;8.50;99.90;;;;;;5069708;28;20492;-85
2023/09/14 05:27:43;;;;;;;4.72;2.65;;;8.50;99.90;;;;;;5073099;28;20036;-84
2023/09/14 05:30:09;;;;;;;4.38;2.75;;;8.50;99.90;;;;;;5058094;28;20382;-85
2023/09/14 05:32:37;;;;;;;5.28;2.75;;;8.60;99.90;;;;;;5059332;28;20130;-84
2023/09/14 05:35:04;;;;;;;7.75;2.47;;;8.60;99.90;;;;;;5053575;28;20039;-85
2023/09/14 05:37:29;;;;;;;4.97;2.38;;;8.60;99.90;;;;;;5054759;28;20047;-85
2023/09/14 05:39:55;;;;;;;9.10;3.00;;;8.60;99.90;;;;;;5059599;28;20181;-85
2023/09/14 05:42:22;;;;;;;4.03;2.60;;;8.70;99.90;;;;;;5070933;28;20454;-85
2023/09/14 05:44:48;;;;;;;4.88;2.80;;;8.80;99.90;;;;;;5075969;28;20059;-84
2023/09/14 05:47:14;;;;;;;7.47;2.92;;;8.80;99.90;;;;;;5089610;28;20039;-85
2023/09/14 05:49:41;;;;;;;8.85;3.42;;;8.90;99.90;;;;;;5095933;28;20042;-84
2023/09/14 05:52:06;;;;;;;5.30;2.90;;;8.90;99.90;;;;;;5081214;28;20036;-84
2023/09/14 05:54:32;;;;;;;4.55;2.83;;;9.00;99.90;;;;;;5073212;28;20232;-85
2023/09/14 05:56:57;;;;;;;6.72;2.90;;;9.10;99.90;;;;;;5082087;28;20435;-84
2023/09/14 05:59:23;;;;;;;4.95;2.90;;;9.20;99.90;;;;;;5082011;28;20040;-85
2023/09/14 06:01:50;;;;;;;6.00;2.97;;;9.20;99.90;;;;;;5076916;28;20032;-85
2023/09/14 06:04:17;;;;;;;5.63;3.00;;;9.30;99.90;;;;;;5071961;28;20036;-85
2023/09/14 06:06:42;;;;;;;7.57;3.20;;;9.40;99.90;;;;;;5074286;28;20040;-85
2023/09/14 06:09:08;;;;;;;5.90;3.05;;;9.50;99.90;;;;;;5088847;28;20112;-85
2023/09/14 06:11:34;;;;;;;6.63;3.20;;;9.50;99.90;;;;;;5091090;28;20446;-85
2023/09/14 06:14:00;;;;;;;4.90;2.88;;;9.60;99.90;;;;;;5090684;28;20149;-85
2023/09/14 06:16:26;;;;;;;5.25;2.95;;;9.70;99.90;;;;;;5093640;28;20126;-85
2023/09/14 06:18:52;;;;;;;9.43;3.00;;;9.80;99.90;;;;;;5092485;28;20122;-84
2023/09/14 06:21:18;;;;;;;5.07;2.88;;;9.90;99.90;;;;;;5077093;28;20035;-85
2023/09/14 06:23:44;;;;;;;6.10;3.28;;;10.00;99.90;;;;;;5076547;28;20462;-85
2023/09/14 06:26:10;;;;;;;9.00;3.30;;;10.10;99.90;;;;;;5094422;28;20146;-85
2023/09/14 06:28:39;;;;;;;17.52;3.20;;;10.20;99.90;;;;;;5091677;28;20071;-85
2023/09/14 06:31:04;;;;;;;5.60;2.63;;;10.30;99.90;;;;;;5077344;28;20373;-85
2023/09/14 06:33:30;;;;;;;6.78;2.97;;;10.30;99.90;;;;;;5089690;28;20050;-85
2023/09/14 06:35:56;;;;;;;3.75;2.58;;;10.40;99.90;;;;;;5087337;28;20047;-84
2023/09/14 06:38:24;;;;;;;5.53;2.60;;;10.50;99.90;;;;;;5082509;28;20499;-84
2023/09/14 06:40:50;;;;;;;5.45;2.58;;;10.60;99.90;;;;;;5076973;28;20043;-85
2023/09/14 06:43:16;;;;;;;6.57;2.97;;;10.70;99.90;;;;;;5070743;28;20455;-85
2023/09/14 06:45:42;;;;;;;6.85;2.35;;;10.80;99.90;;;;;;5060261;28;20477;-85
2023/09/14 06:48:08;;;;;;;5.10;2.70;;;10.90;99.90;;;;;;5063928;28;20628;-84
2023/09/14 06:50:33;;;;;;;4.32;2.55;;;11.00;99.90;;;;;;5054695;28;20045;-85
2023/09/14 06:52:59;;;;;;;7.20;2.10;;;11.00;99.90;;;;;;5061749;28;20135;-84
2023/09/14 06:55:24;;;;;;;3.42;2.33;;;11.20;99.90;;;;;;5058613;28;20281;-84
2023/09/14 06:57:50;;;;;;;7.47;2.88;;;11.20;99.90;;;;;;5061544;28;20111;-84
2023/09/14 07:00:20;;;;;;;4.15;2.30;;;11.30;99.90;;;;;;5059220;28;20043;-84
2023/09/14 07:02:52;;;;;;;6.10;2.50;;;11.50;99.90;;;;;;5070464;28;20044;-85
2023/09/14 07:05:18;;;;;;;6.00;2.10;;;11.60;99.90;;;;;;5073049;28;20044;-84
2023/09/14 07:07:43;;;;;;;6.32;2.38;;;11.70;99.90;;;;;;5057458;28;20032;-84
2023/09/14 07:10:10;;;;;;;5.38;2.60;;;11.80;99.90;;;;;;5061617;28;20040;-84
2023/09/14 07:12:36;;;;;;;8.68;2.25;;;11.90;99.90;;;;;;5075705;28;20083;-84
2023/09/14 07:15:02;;;;;;;10.57;2.50;;;12.00;99.90;;;;;;5059624;28;20048;-85
2023/09/14 07:17:28;;;;;;;5.60;2.00;;;12.20;99.90;;;;;;5070896;28;20052;-85
2023/09/14 07:19:54;;;;;;;3.33;1.98;;;12.30;99.90;;;;;;5057759;28;20051;-84
2023/09/14 07:22:20;;;;;;;3.47;2.20;;;12.40;99.90;;;;;;5071117;28;20036;-85
2023/09/14 07:24:46;;;;;;;5.20;1.90;;;12.50;99.90;;;;;;5071494;28;20141;-85
2023/09/14 07:27:16;;;;;;;4.35;1.98;;;12.60;99.90;;;;;;5071942;28;20040;-84
2023/09/14 07:29:42;;;;;;;4.93;1.70;;;12.80;99.90;;;;;;5069463;28;20043;-84
2023/09/14 07:32:09;;;;;;;5.05;1.73;;;12.90;99.90;;;;;;5054776;28;20044;-84
2023/09/14 07:34:35;;;;;;;6.20;1.70;;;13.10;99.90;;;;;;5070952;28;20057;-84
2023/09/14 07:37:00;;;;;;;2.63;1.55;;;13.20;99.90;;;;;;5055675;28;20067;-85
2023/09/14 07:39:26;;;;;;;5.43;1.90;;;13.30;99.90;;;;;;5061795;28;20032;-84
2023/09/14 07:41:55;;;;;;;4.65;1.50;;;13.40;99.90;;;;;;5069045;28;20049;-84
2023/09/14 07:44:26;;;;;;;3.55;1.42;;;13.50;99.90;;;;;;5056873;28;20366;-84
2023/09/14 07:46:51;;;;;;;8.13;1.80;;;13.70;99.90;;;;;;5058323;28;20044;-84
2023/09/14 07:49:17;;;;;;;4.00;1.73;;;13.80;99.90;;;;;;5070491;28;20297;-84
2023/09/14 07:51:43;;;;;;;3.70;1.40;;;13.90;99.90;;;;;;5056107;28;20062;-84
2023/09/14 07:54:08;;;;;;;3.38;1.38;;;14.10;99.90;;;;;;5060834;28;20035;-84
2023/09/14 07:56:34;;;;;;;3.80;1.80;;;14.20;99.90;;;;;;5060300;28;20476;-84
2023/09/14 07:59:02;;;;;;;3.42;1.58;;;14.40;99.90;;;;;;5064621;28;20304;-84
2023/09/14 08:01:28;;;;;;;4.28;1.20;;;14.50;99.90;;;;;;5067416;28;20037;-84
2023/09/14 08:03:54;;;;;;;4.07;1.23;;;14.60;99.90;;;;;;5062075;28;20589;-84
2023/09/14 08:06:21;;;;;;;4.07;1.30;;;14.80;99.90;;;;;;5055748;28;20109;-84
2023/09/14 08:08:47;;;;;;;3.75;1.60;;;14.90;99.90;;;;;;5060100;28;20124;-85
2023/09/14 08:11:13;;;;;;;3.92;1.27;;;15.00;99.90;;;;;;5068073;28;20079;-84
2023/09/14 08:13:38;;;;;;;3.92;1.98;;;15.20;99.90;;;;;;5055567;28;20463;-85
2023/09/14 08:16:05;;;;;;;4.13;1.73;;;15.30;99.90;;;;;;5071689;28;20527;-84
2023/09/14 08:18:31;;;;;;;4.45;1.35;;;15.50;99.90;;;;;;5054159;28;20058;-85
2023/09/14 08:20:57;;;;;;;4.50;1.77;;;15.60;99.90;;;;;;5058883;28;20051;-84
2023/09/14 08:23:22;;;;;;;3.58;1.38;;;15.70;99.90;;;;;;5071081;28;20400;-85
2023/09/14 08:25:48;;;;;;;5.10;1.40;;;15.90;99.90;;;;;;5072703;28;20040;-85
2023/09/14 08:28:16;;;;;;;3.28;1.40;;;16.00;99.90;;;;;;5068115;28;20282;-85
2023/09/14 08:30:43;;;;;;;5.22;1.58;;;16.10;99.90;;;;;;5076354;28;20059;-85
2023/09/14 08:33:08;;;;;;;14.77;1.90;;;16.30;99.90;;;;;;5060535;28;20048;-85
2023/09/14 08:35:36;;;;;;;4.20;1.30;;;16.40;99.90;;;;;;5053756;28;20040;-85
2023/09/14 08:38:05;;;;;;;6.28;1.25;;;16.60;99.90;;;;;;5068718;28;20147;-85
2023/09/14 08:40:31;;;;;;;4.10;1.42;;;16.70;99.90;;;;;;5065758;28;20451;-85
2023/09/14 08:42:57;;;;;;;3.78;1.30;;;16.90;99.90;;;;;;5056266;28;20083;-85
2023/09/14 08:45:27;;;;;;;5.95;1.67;;;16.90;99.90;;;;;;5054980;28;20071;-85
2023/09/14 08:47:55;;;;;;;3.72;1.33;;;17.10;99.90;;;;;;5053471;28;20062;-85
2023/09/14 08:50:27;;;;;;;5.63;1.40;;;17.20;99.90;;;;;;5055111;28;20091;-86
2023/09/14 08:52:53;;;;;;;4.20;1.60;;;17.30;99.90;;;;;;5073898;28;20549;-85
2023/09/14 08:55:20;;;;;;;4.25;1.50;;;17.40;99.90;;;;;;5074516;28;20078;-85
2023/09/14 08:57:47;;;;;;;4.45;1.40;;;17.40;99.90;;;;;;5074591;28;20427;-85
2023/09/14 09:00:17;;;;;;;5.50;1.77;;;17.40;99.90;;;;;;5076578;28;20039;-85
2023/09/14 09:02:49;;;;;;;5.53;1.60;;;17.60;99.90;;;;;;5067249;28;20243;-85
2023/09/14 09:05:16;;;;;;;4.70;1.80;;;17.60;99.90;;;;;;5057217;28;20072;-86
2023/09/14 09:07:44;;;;;;;6.55;1.75;;;17.30;99.90;;;;;;5049527;28;20040;-85
2023/09/14 09:10:24;;;;;;;6.60;1.88;;;17.40;99.90;;;;;;5048979;28;20036;-85
2023/09/14 09:13:02;;;;;;;6.13;1.60;;;17.40;99.90;;;;;;5060260;28;20043;-85
2023/09/14 09:15:28;;;;;;;6.45;1.65;;;17.40;99.90;;;;;;5074213;28;20035;-85
2023/09/14 09:18:09;;;;;;;4.00;1.38;;;17.50;99.90;;;;;;5055760;28;20224;-86
2023/09/14 09:20:36;;;;;;;2.88;1.30;;;17.50;99.90;;;;;;5050434;28;20044;-85
2023/09/14 09:23:03;;;;;;;5.10;1.92;;;17.60;99.90;;;;;;5047726;28;20129;-86
2023/09/14 09:25:41;;;;;;;4.43;1.40;;;17.80;99.90;;;;;;5056666;28;20098;-86
2023/09/14 09:28:07;;;;;;;6.13;1.80;;;18.00;99.90;;;;;;5058461;28;20045;-85
2023/09/14 09:30:34;;;;;;;5.75;1.55;;;18.20;99.90;;;;;;5070034;28;20055;-85
2023/09/14 09:33:00;;;;;;;2.38;1.50;;;18.20;99.90;;;;;;5069993;28;20074;-86
2023/09/14 09:35:28;;;;;;;7.63;1.67;;;18.20;99.90;;;;;;5051984;28;20642;-86
2023/09/14 09:37:58;;;;;;;6.32;1.48;;;18.30;99.90;;;;;;5068295;28;20515;-85
2023/09/14 09:40:27;;;;;;;9.50;2.55;;;18.20;99.90;;;;;;5065175;28;20036;-86
2023/09/14 09:42:54;;;;;;;5.18;1.75;;;18.40;99.90;;;;;;5065571;28;20106;-86
2023/09/14 09:45:24;;;;;;;3.78;1.60;;;18.70;99.90;;;;;;5065872;28;20055;-86
2023/09/14 09:47:50;;;;;;;8.02;2.45;;;18.90;99.90;;;;;;5089958;28;20035;-85
2023/09/14 09:50:19;;;;;;;3.15;1.38;;;18.80;99.90;;;;;;5086672;28;20031;-86
2023/09/14 09:52:46;;;;;;;4.97;1.60;;;19.00;99.90;;;;;;5090954;28;20082;-85
2023/09/14 09:55:22;;;;;;;7.57;1.60;;;19.20;99.90;;;;;;5074568;28;20623;-85
2023/09/14 09:57:51;;;;;;;3.53;1.50;;;19.00;99.90;;;;;;5090713;28;20040;-86
2023/09/14 10:00:19;;;;;;;3.00;1.30;;;19.20;99.90;;;;;;5074302;28;20933;-85
2023/09/14 10:02:49;;;;;;;4.88;1.50;;;19.20;99.90;;;;;;5074584;28;20090;-86
2023/09/14 10:05:15;;;;;;;4.55;1.67;;;19.20;99.90;;;;;;5076421;28;20134;-87
2023/09/14 10:07:41;;;;;;;3.35;1.33;;;19.40;99.90;;;;;;5083858;28;20240;-87
2023/09/14 10:10:07;;;;;;;5.40;1.58;;;19.50;99.90;;;;;;5079652;28;20420;-86
2023/09/14 10:12:38;;;;;;;3.60;1.55;;;19.60;99.90;;;;;;5078921;28;20086;-85
2023/09/14 10:15:08;;;;;;;8.75;1.67;;;19.40;99.90;;;;;;5077719;28;20039;-85
2023/09/14 10:17:34;;;;;;;5.60;1.48;;;19.50;99.90;;;;;;5088751;28;20039;-86
2023/09/14 10:20:03;;;;;;;4.20;1.90;;;19.10;99.90;;;;;;5089988;28;20194;-86
2023/09/14 10:22:33;;;;;;;6.38;1.60;;;19.30;99.90;;;;;;5088163;28;20071;-86
2023/09/14 10:24:59;;;;;;;4.65;1.55;;;19.40;99.90;;;;;;5077503;28;20268;-86
2023/09/14 10:27:29;;;;;;;4.75;1.48;;;19.60;99.90;;;;;;5075663;28;20068;-86
2023/09/14 10:29:58;;;;;;;12.15;2.30;;;19.20;99.90;;;;;;5095914;28;20039;-86
2023/09/14 10:32:25;;;;;;;7.60;1.70;;;19.50;99.90;;;;;;5073478;28;20119;-86
2023/09/14 10:34:51;;;;;;;3.22;1.52;;;20.10;99.90;;;;;;5080677;28;20040;-86
2023/09/14 10:37:20;;;;;;;5.78;1.58;;;19.90;99.90;;;;;;5085161;28;20119;-86
2023/09/14 10:39:46;;;;;;;4.95;1.60;;;19.60;99.90;;;;;;5094219;28;20036;-87
2023/09/14 10:42:12;;;;;;;6.03;1.60;;;20.30;99.90;;;;;;5088297;28;20159;-86
2023/09/14 10:44:38;;;;;;;7.85;2.25;;;20.50;99.90;;;;;;5061273;28;20067;-86
2023/09/14 10:47:05;;;;;;;6.18;2.00;;;20.30;99.90;;;;;;5053681;28;20033;-86
2023/09/14 10:49:34;;;;;;;4.45;1.88;;;19.60;99.90;;;;;;5069693;28;20342;-86
2023/09/14 10:52:00;;;;;;;5.07;1.45;;;19.50;99.90;;;;;;5067759;28;20287;-86
2023/09/14 10:54:29;;;;;;;2.92;1.48;;;19.70;99.90;;;;;;5058788;28;20123;-86
2023/09/14 10:57:00;;;;;;;7.20;1.70;;;19.80;99.90;;;;;;5054127;28;20065;-86
2023/09/14 10:59:54;;;;;;;7.15;2.03;;;19.80;99.90;;;;;;5064670;28;20118;-86
2023/09/14 11:02:43;;;;;;;5.60;1.80;;;20.20;99.90;;;;;;5050826;28;20050;-86
2023/09/14 11:05:12;;;;;;;5.50;1.85;;;19.80;99.90;;;;;;5052504;28;20032;-87
2023/09/14 11:07:39;;;;;;;4.28;1.67;;;19.80;99.90;;;;;;5066236;28;20058;-86
2023/09/14 11:10:06;;;;;;;4.32;1.70;;;19.70;99.90;;;;;;5058972;28;20134;-86
2023/09/14 11:12:34;;;;;;;4.78;1.98;;;19.80;99.90;;;;;;5059378;28;20059;-86
2023/09/14 11:15:22;;;;;;;4.55;1.95;;;19.90;99.90;;;;;;5053832;28;20278;-86
2023/09/14 11:17:53;;;;;;;3.33;1.70;;;20.00;99.90;;;;;;5059383;28;20412;-87
2023/09/14 11:20:19;;;;;;;5.13;2.00;;;19.80;99.90;;;;;;5072509;28;20051;-86
2023/09/14 11:22:45;;;;;;;4.03;1.77;;;20.50;99.90;;;;;;5056466;28;20044;-86
2023/09/14 11:25:26;;;;;;;3.17;1.85;;;20.80;99.90;;;;;;5075801;28;20413;-87
2023/09/14 11:27:52;;;;;;;4.97;1.77;;;21.30;99.90;;;;;;5060953;28;20062;-86
2023/09/14 11:30:20;;;;;;;5.15;2.08;;;21.30;99.90;;;;;;5064681;28;20044;-86
2023/09/14 11:32:47;;;;;;;5.70;2.35;;;21.40;99.90;;;;;;5061705;28;20052;-86
2023/09/14 11:35:13;;;;;;;4.38;1.90;;;21.70;99.90;;;;;;5042305;28;20051;-86
2023/09/14 11:37:42;;;;;;;4.03;1.90;;;21.80;99.90;;;;;;5066741;28;20420;-87
2023/09/14 11:40:17;;;;;;;6.22;1.98;;;22.10;99.90;;;;;;5060940;28;20044;-86
2023/09/14 11:43:06;;;;;;;5.60;1.85;;;22.10;99.90;;;;;;5090312;28;20043;-86
2023/09/14 11:45:35;;;;;;;3.60;1.80;;;21.70;99.90;;;;;;5097923;28;20058;-86
2023/09/14 11:48:02;;;;;;;3.90;1.90;;;21.90;99.90;;;;;;5080519;28;20079;-86
2023/09/14 11:50:28;;;;;;;5.18;2.30;;;21.80;99.90;;;;;;5081587;28;20118;-87
2023/09/14 11:52:56;;;;;;;2.95;1.52;;;21.60;99.90;;;;;;5074436;28;20172;-86
2023/09/14 11:55:22;;;;;;;5.90;2.20;;;22.30;99.90;;;;;;5091306;28;20128;-86
2023/09/14 11:57:48;;;;;;;5.88;1.90;;;22.10;99.90;;;;;;5094477;28;20121;-86
2023/09/14 12:00:15;;;;;;;6.28;1.95;;;22.20;99.90;;;;;;5093885;28;20331;-86
2023/09/14 12:02:41;;;;;;;6.15;1.90;;;22.30;99.90;;;;;;5078866;28;20457;-87
2023/09/14 12:05:08;;;;;;;3.95;1.70;;;22.00;99.90;;;;;;5075280;28;20101;-86
2023/09/14 12:07:34;;;;;;;7.65;2.10;;;22.80;99.90;;;;;;5095078;28;20032;-86
2023/09/14 12:10:01;;;;;;;4.10;2.13;;;22.90;99.90;;;;;;5078707;28;20036;-87
2023/09/14 12:12:30;;;;;;;7.15;1.85;;;22.90;1.00;;;;;;5085085;28;20576;-87
2023/09/14 12:15:01;;;;;;;5.57;1.85;;;22.80;99.90;;;;;;5081632;28;20051;-87
2023/09/14 12:17:28;;;;;;;4.68;2.10;;;23.00;1.00;;;;;;5083021;28;20044;-87
2023/09/14 12:19:56;;;;;;;3.83;1.95;;;23.50;99.90;;;;;;5080608;28;20036;-87
2023/09/14 12:22:25;;;;;;;7.70;2.33;;;23.00;99.90;;;;;;5081505;28;20048;-87
2023/09/14 12:24:52;;;;;;;4.93;1.92;;;22.80;1.00;;;;;;5080801;28;20138;-87
2023/09/14 12:27:18;;;;;;;6.63;2.10;;;23.30;99.90;;;;;;5088615;28;20464;-87
2023/09/14 12:29:46;;;;;;;9.80;2.28;;;23.60;99.90;;;;;;5081547;28;20403;-86
2023/09/14 12:32:12;;;;;;;5.75;2.10;;;23.30;99.90;;;;;;5077239;28;20391;-87
2023/09/14 12:34:38;;;;;;;3.20;1.70;;;23.00;1.00;;;;;;5101041;28;20067;-87
2023/09/14 12:37:05;;;;;;;6.70;2.00;;;23.50;5.60;;;;;;5078688;28;20092;-86
2023/09/14 12:39:32;;;;;;;5.88;2.20;;;22.40;99.90;;;;;;5090043;28;20036;-87
2023/09/14 12:42:01;;;;;;;4.60;2.00;;;22.20;99.90;;;;;;5087508;28;20142;-86
2023/09/14 12:44:27;;;;;;;4.75;1.95;;;21.80;99.90;;;;;;5061280;28;20048;-86
2023/09/14 12:46:53;;;;;;;7.47;2.30;;;21.70;14.70;;;;;;5060470;28;20048;-86
2023/09/14 12:49:23;;;;;;;5.25;2.10;;;22.10;99.90;;;;;;5069338;28;20369;-86
2023/09/14 12:51:51;;;;;;;5.93;2.40;;;22.40;99.90;;;;;;5071129;28;20047;-86